Anna, Texas
Current Conditions -  °F | °C
As of 10:53 PM on Wednesday 22 Oct 2014 (Local Time) from KTKI Reporting Station
Clear Clear  
Wind Chill: 19°   Ceiling: Unl
Heat Index: 19°   Visibility: 10mi
Dew Point: 13°   Wind: 5mph
Humidity: 66%   Direction: 110°ESE
Pressure: 30.12"   Gusts: NA
Location:  33.35°N, 96.55°W
Report Text: KTKI 230353Z AUTO 11004KT 10SM CLR 19/13 A3012 RMK AO2 SLP200 T01940128
Loading
Personal Weather Stations






























Interactive Weather Map
Tropical Storm Tracking
New forecast layout! Learn more

10-Day Weather Forecast

Advertisements
Track Severe Weather on mobile